Rose Creek, Minnesota
Current Conditions -  °F | °C
As of 11:16 AM on Friday 28 Nov 2014 (Local Time) from KAUM Reporting Station
Clear Clear  
Wind Chill:   Ceiling: Unl
Heat Index: 18°   Visibility: 10mi
Dew Point: 12°   Wind: 7mph
Humidity: 79%   Direction: 160°SSE
Pressure: 29.91"   Gusts: NA
Location:  43.6°N, 92.83°W
Report Text: KAUM 281716Z AUTO 16006KT 10SM CLR M08/M11 A2991 RMK AO2
Loading
Personal Weather Stations






























Interactive Weather Map New forecast layout! Learn more

10-Day Weather Forecast

Advertisements
Track Severe Weather on mobile